Alba Rousing — OVIL2 — position and weather

sailwx.info

Track history (hours):
 
Tides and Currents Weather Stations Pressure Air Temp Water Temp Dewpoint Dewpoint Depression Visibility Wind Speed Wind Dir Waves Ship Positions

Alba Rousing

Last reported at 2018-Jan-20 05:42 UTC. Time now 2018-Jan-22 08:26 UTC.
Position N 55°15' E 012°38'.

Length 79 m; draft 3.5 m.

Type: Ship. MMSI: 220439000.

Date/timePositionNaut miles runAvg speedWind from/ knotsBaromVisibWave heightAir tempDewpointWater temp
2018-Jan-20 05:42N 55°15' E 012°38'2 6.8
2018-Jan-20 05:28N 55°16' E 012°37'3 6.8
2018-Jan-20 04:59N 55°20' E 012°37'3 6.9
2018-Jan-20 04:30N 55°23' E 012°39'3 6.9
2018-Jan-20 04:00N 55°26' E 012°40'3 6.8
2018-Jan-20 03:30N 55°30' E 012°41'3 6.8
2018-Jan-20 03:00N 55°33' E 012°42'4 7.2
2018-Jan-20 02:30N 55°36' E 012°42'4 7.2
2018-Jan-20 02:00N 55°40' E 012°41'4 7.1
2018-Jan-20 01:30N 55°44' E 012°41'4 7.3
2018-Jan-20 01:00N 55°47' E 012°40'4 7.2
2018-Jan-20 00:30N 55°51' E 012°39'4 7.0
2018-Jan-20 00:00N 55°54' E 012°39'3 6.8
2018-Jan-19 23:30N 55°58' E 012°38'3 6.8
2018-Jan-19 23:00N 56°01' E 012°38'3 5.7
2018-Jan-19 22:30N 56°04' E 012°37'23 3.7
2018-Jan-19 16:29N 55°57' E 011°59'1 0.3
2018-Jan-19 10:51N 55°58' E 012°01'0 0.0
2018-Jan-19 10:17N 55°58' E 012°01'0 0.0
2018-Jan-19 07:35N 55°58' E 012°01'0 0.0
2018-Jan-19 04:44N 55°58' E 012°01'0 0.0
2018-Jan-19 04:14N 55°58' E 012°01'0 0.0
2018-Jan-19 03:56N 55°58' E 012°01'0 0.0
2018-Jan-19 03:30N 55°58' E 012°01'0 0.0
2018-Jan-19 02:59N 55°58' E 012°01'0 0.0
2018-Jan-19 02:23N 55°58' E 012°01'0 0.0
2018-Jan-19 01:59N 55°58' E 012°01'0 0.0
2018-Jan-19 01:30N 55°58' E 012°01'0 0.0
2018-Jan-19 00:56N 55°58' E 012°01'0 0.0
2018-Jan-19 00:30N 55°58' E 012°01'0 0.0
2018-Jan-18 23:56N 55°58' E 012°01'0 0.0
2018-Jan-18 23:29N 55°58' E 012°01'1 2.7
2018-Jan-18 23:00N 55°57' E 011°59'4 7.2
2018-Jan-18 22:30N 55°56' E 011°53'23 5.5
2018-Jan-18 18:22N 56°08' E 012°27'3 7.3
2018-Jan-18 18:00N 56°08' E 012°32'4 7.3
2018-Jan-18 17:30N 56°05' E 012°36'4 7.1
2018-Jan-18 17:00N 56°02' E 012°40'3 6.6
2018-Jan-18 16:30N 55°59' E 012°42'3 6.4
2018-Jan-18 16:00N 55°56' E 012°44'3 6.3
2018-Jan-18 15:30N 55°53' E 012°46'3 5.1
2018-Jan-18 15:00N 55°51' E 012°50'0 0.6
2018-Jan-18 14:30N 55°51' E 012°50'0 0.0
2018-Jan-18 14:00N 55°51' E 012°50'0 0.0
2018-Jan-18 13:30N 55°51' E 012°50'0 0.0
2018-Jan-18 13:00N 55°51' E 012°50'0 0.0
2018-Jan-18 12:24N 55°51' E 012°50'0 0.0
2018-Jan-18 11:57N 55°51' E 012°50'0 0.0
2018-Jan-18 11:27N 55°51' E 012°50'0 0.0
2018-Jan-18 11:00N 55°51' E 012°50'0 0.0
2018-Jan-18 10:30N 55°51' E 012°50'0 0.0
2018-Jan-18 10:00N 55°51' E 012°50'0 0.0
2018-Jan-18 09:30N 55°51' E 012°50'0 0.0
2018-Jan-18 09:00N 55°51' E 012°50'0 0.0
2018-Jan-18 08:30N 55°51' E 012°50'0 0.0
2018-Jan-18 08:00N 55°51' E 012°50'0 0.0
2018-Jan-18 07:30N 55°51' E 012°50'0 0.0
2018-Jan-18 07:00N 55°51' E 012°50'0 0.0
2018-Jan-18 06:30N 55°51' E 012°50'0 0.0
2018-Jan-18 06:00N 55°51' E 012°50'0 0.0
2018-Jan-18 05:30N 55°51' E 012°50'0 0.0
2018-Jan-18 05:00N 55°51' E 012°50'0 0.0
2018-Jan-18 04:30N 55°51' E 012°50'0 0.0
2018-Jan-18 03:57N 55°51' E 012°50'0 0.0
2018-Jan-18 03:30N 55°51' E 012°50'0 0.0
2018-Jan-18 03:00N 55°51' E 012°50'0 0.0
2018-Jan-18 02:27N 55°51' E 012°50'0 0.0
2018-Jan-18 02:00N 55°51' E 012°50'0 0.0
2018-Jan-18 01:24N 55°51' E 012°50'0 0.0
2018-Jan-18 01:00N 55°51' E 012°50'0 0.0
2018-Jan-17 23:51N 55°51' E 012°50'  
2018-Jan-12 06:21N 54°49' E 010°22'3 7.9
2018-Jan-12 06:00N 54°47' E 010°26'4 8.3
2018-Jan-12 05:30N 54°45' E 010°32'4 8.5
2018-Jan-12 05:01N 54°43' E 010°38'4 8.3
2018-Jan-12 04:30N 54°41' E 010°45'4 8.9
2018-Jan-12 04:00N 54°40' E 010°52'4 8.9
2018-Jan-12 03:30N 54°38' E 010°59'4 8.9
2018-Jan-12 03:00N 54°37' E 011°07'4 8.9
2018-Jan-12 02:30N 54°35' E 011°14'4 8.8
2018-Jan-12 02:00N 54°33' E 011°21'4 8.7
2018-Jan-12 01:30N 54°32' E 011°28'4 8.0
2018-Jan-12 01:00N 54°31' E 011°35'4 8.0
2018-Jan-12 00:29N 54°31' E 011°42'4 8.1
2018-Jan-12 00:00N 54°31' E 011°48'4 8.1
2018-Jan-11 23:31N 54°30' E 011°55'4 8.1
2018-Jan-11 23:00N 54°30' E 012°02'77 7.7
2018-Jan-11 12:56N 54°54' E 014°10'7 8.0
2018-Jan-11 12:02N 54°53' E 014°22'0 8.0
2018-Jan-11 11:58N 54°53' E 014°23'4 8.1
2018-Jan-11 11:28N 54°53' E 014°30'4 8.1
2018-Jan-11 11:00N 54°53' E 014°36'4 8.2
2018-Jan-11 10:30N 54°53' E 014°43'4 7.9
2018-Jan-11 10:00N 54°53' E 014°50'4 7.8
2018-Jan-11 09:31N 54°53' E 014°57'4 7.8
2018-Jan-11 08:59N 54°52' E 015°04'116 7.7
2018-Jan-10 17:58N 54°55' E 018°26'4 8.0
2018-Jan-10 17:30N 54°54' E 018°32'4 8.4
2018-Jan-10 17:00N 54°52' E 018°38'4 8.5
2018-Jan-10 16:30N 54°50' E 018°45'4 8.3
2018-Jan-10 16:00N 54°47' E 018°50'4 8.9
2018-Jan-10 15:31N 54°43' E 018°54'4 8.1
2018-Jan-10 15:00N 54°39' E 018°57'4 9.0
2018-Jan-10 14:30N 54°35' E 018°53'4 8.7
2018-Jan-10 14:00N 54°32' E 018°48'4 8.4
2018-Jan-10 13:30N 54°29' E 018°43'4 7.9
2018-Jan-10 13:01N 54°26' E 018°39'3 5.5
2018-Jan-10 12:30N 54°23' E 018°40'1 1.2
2018-Jan-10 11:58N 54°22' E 018°40'0 0.0
2018-Jan-10 11:28N 54°22' E 018°40'0 0.0
2018-Jan-10 10:58N 54°22' E 018°40'0 0.0
2018-Jan-10 10:28N 54°22' E 018°40'0 0.0
2018-Jan-10 09:58N 54°22' E 018°40'0 0.0
2018-Jan-10 09:28N 54°22' E 018°40'0 0.0
2018-Jan-10 08:56N 54°22' E 018°40'0 0.0
2018-Jan-10 08:26N 54°22' E 018°40'0 0.0
2018-Jan-10 07:58N 54°22' E 018°40'0 0.0
2018-Jan-10 07:22N 54°22' E 018°40'0 0.0
2018-Jan-10 06:58N 54°22' E 018°40'0 0.0
2018-Jan-10 06:28N 54°22' E 018°40'  
Track history (hours):
 
Tides and Currents Weather Stations Pressure Air Temp Water Temp Dewpoint Dewpoint Depression Visibility Wind Speed Wind Dir Waves Ship Positions

Alba Rousing

Last reported at 2018-Jan-20 05:42 UTC. Time now 2018-Jan-22 08:26 UTC.
Position N 55°15' E 012°38'.

Length 79 m; draft 3.5 m.

Type: Ship. MMSI: 220439000.

Date/timePositionNaut miles runAvg speedWind from/ knotsBaromVisibWave heightAir tempDewpointWater temp
2018-Jan-20 05:42N 55°15' E 012°38'2 6.8
2018-Jan-20 05:28N 55°16' E 012°37'3 6.8
2018-Jan-20 04:59N 55°20' E 012°37'3 6.9
2018-Jan-20 04:30N 55°23' E 012°39'3 6.9
2018-Jan-20 04:00N 55°26' E 012°40'3 6.8
2018-Jan-20 03:30N 55°30' E 012°41'3 6.8
2018-Jan-20 03:00N 55°33' E 012°42'4 7.2
2018-Jan-20 02:30N 55°36' E 012°42'4 7.2
2018-Jan-20 02:00N 55°40' E 012°41'4 7.1
2018-Jan-20 01:30N 55°44' E 012°41'4 7.3
2018-Jan-20 01:00N 55°47' E 012°40'4 7.2
2018-Jan-20 00:30N 55°51' E 012°39'4 7.0
2018-Jan-20 00:00N 55°54' E 012°39'3 6.8
2018-Jan-19 23:30N 55°58' E 012°38'3 6.8
2018-Jan-19 23:00N 56°01' E 012°38'3 5.7
2018-Jan-19 22:30N 56°04' E 012°37'23 3.7
2018-Jan-19 16:29N 55°57' E 011°59'1 0.3
2018-Jan-19 10:51N 55°58' E 012°01'0 0.0
2018-Jan-19 10:17N 55°58' E 012°01'0 0.0
2018-Jan-19 07:35N 55°58' E 012°01'0 0.0
2018-Jan-19 04:44N 55°58' E 012°01'0 0.0
2018-Jan-19 04:14N 55°58' E 012°01'0 0.0
2018-Jan-19 03:56N 55°58' E 012°01'0 0.0
2018-Jan-19 03:30N 55°58' E 012°01'0 0.0
2018-Jan-19 02:59N 55°58' E 012°01'0 0.0
2018-Jan-19 02:23N 55°58' E 012°01'0 0.0
2018-Jan-19 01:59N 55°58' E 012°01'0 0.0
2018-Jan-19 01:30N 55°58' E 012°01'0 0.0
2018-Jan-19 00:56N 55°58' E 012°01'0 0.0
2018-Jan-19 00:30N 55°58' E 012°01'0 0.0
2018-Jan-18 23:56N 55°58' E 012°01'0 0.0
2018-Jan-18 23:29N 55°58' E 012°01'1 2.7
2018-Jan-18 23:00N 55°57' E 011°59'4 7.2
2018-Jan-18 22:30N 55°56' E 011°53'23 5.5
2018-Jan-18 18:22N 56°08' E 012°27'3 7.3
2018-Jan-18 18:00N 56°08' E 012°32'4 7.3
2018-Jan-18 17:30N 56°05' E 012°36'4 7.1
2018-Jan-18 17:00N 56°02' E 012°40'3 6.6
2018-Jan-18 16:30N 55°59' E 012°42'3 6.4
2018-Jan-18 16:00N 55°56' E 012°44'3 6.3
2018-Jan-18 15:30N 55°53' E 012°46'3 5.1
2018-Jan-18 15:00N 55°51' E 012°50'0 0.6
2018-Jan-18 14:30N 55°51' E 012°50'0 0.0
2018-Jan-18 14:00N 55°51' E 012°50'0 0.0
2018-Jan-18 13:30N 55°51' E 012°50'0 0.0
2018-Jan-18 13:00N 55°51' E 012°50'0 0.0
2018-Jan-18 12:24N 55°51' E 012°50'0 0.0
2018-Jan-18 11:57N 55°51' E 012°50'0 0.0
2018-Jan-18 11:27N 55°51' E 012°50'0 0.0
2018-Jan-18 11:00N 55°51' E 012°50'0 0.0
2018-Jan-18 10:30N 55°51' E 012°50'0 0.0
2018-Jan-18 10:00N 55°51' E 012°50'0 0.0
2018-Jan-18 09:30N 55°51' E 012°50'0 0.0
2018-Jan-18 09:00N 55°51' E 012°50'0 0.0
2018-Jan-18 08:30N 55°51' E 012°50'0 0.0
2018-Jan-18 08:00N 55°51' E 012°50'0 0.0
2018-Jan-18 07:30N 55°51' E 012°50'0 0.0
2018-Jan-18 07:00N 55°51' E 012°50'0 0.0
2018-Jan-18 06:30N 55°51' E 012°50'0 0.0
2018-Jan-18 06:00N 55°51' E 012°50'0 0.0
2018-Jan-18 05:30N 55°51' E 012°50'0 0.0
2018-Jan-18 05:00N 55°51' E 012°50'0 0.0
2018-Jan-18 04:30N 55°51' E 012°50'0 0.0
2018-Jan-18 03:57N 55°51' E 012°50'0 0.0
2018-Jan-18 03:30N 55°51' E 012°50'0 0.0
2018-Jan-18 03:00N 55°51' E 012°50'0 0.0
2018-Jan-18 02:27N 55°51' E 012°50'0 0.0
2018-Jan-18 02:00N 55°51' E 012°50'0 0.0
2018-Jan-18 01:24N 55°51' E 012°50'0 0.0
2018-Jan-18 01:00N 55°51' E 012°50'0 0.0
2018-Jan-17 23:51N 55°51' E 012°50'  
2018-Jan-12 06:21N 54°49' E 010°22'3 7.9
2018-Jan-12 06:00N 54°47' E 010°26'4 8.3
2018-Jan-12 05:30N 54°45' E 010°32'4 8.5
2018-Jan-12 05:01N 54°43' E 010°38'4 8.3
2018-Jan-12 04:30N 54°41' E 010°45'4 8.9
2018-Jan-12 04:00N 54°40' E 010°52'4 8.9
2018-Jan-12 03:30N 54°38' E 010°59'4 8.9
2018-Jan-12 03:00N 54°37' E 011°07'4 8.9
2018-Jan-12 02:30N 54°35' E 011°14'4 8.8
2018-Jan-12 02:00N 54°33' E 011°21'4 8.7
2018-Jan-12 01:30N 54°32' E 011°28'4 8.0
2018-Jan-12 01:00N 54°31' E 011°35'4 8.0
2018-Jan-12 00:29N 54°31' E 011°42'4 8.1
2018-Jan-12 00:00N 54°31' E 011°48'4 8.1
2018-Jan-11 23:31N 54°30' E 011°55'4 8.1
2018-Jan-11 23:00N 54°30' E 012°02'77 7.7
2018-Jan-11 12:56N 54°54' E 014°10'7 8.0
2018-Jan-11 12:02N 54°53' E 014°22'0 8.0
2018-Jan-11 11:58N 54°53' E 014°23'4 8.1
2018-Jan-11 11:28N 54°53' E 014°30'4 8.1
2018-Jan-11 11:00N 54°53' E 014°36'4 8.2
2018-Jan-11 10:30N 54°53' E 014°43'4 7.9
2018-Jan-11 10:00N 54°53' E 014°50'4 7.8
2018-Jan-11 09:31N 54°53' E 014°57'4 7.8
2018-Jan-11 08:59N 54°52' E 015°04'116 7.7
2018-Jan-10 17:58N 54°55' E 018°26'4 8.0
2018-Jan-10 17:30N 54°54' E 018°32'4 8.4
2018-Jan-10 17:00N 54°52' E 018°38'4 8.5
2018-Jan-10 16:30N 54°50' E 018°45'4 8.3
2018-Jan-10 16:00N 54°47' E 018°50'4 8.9
2018-Jan-10 15:31N 54°43' E 018°54'4 8.1
2018-Jan-10 15:00N 54°39' E 018°57'4 9.0
2018-Jan-10 14:30N 54°35' E 018°53'4 8.7
2018-Jan-10 14:00N 54°32' E 018°48'4 8.4
2018-Jan-10 13:30N 54°29' E 018°43'4 7.9
2018-Jan-10 13:01N 54°26' E 018°39'3 5.5
2018-Jan-10 12:30N 54°23' E 018°40'1 1.2
2018-Jan-10 11:58N 54°22' E 018°40'0 0.0
2018-Jan-10 11:28N 54°22' E 018°40'0 0.0
2018-Jan-10 10:58N 54°22' E 018°40'0 0.0
2018-Jan-10 10:28N 54°22' E 018°40'0 0.0
2018-Jan-10 09:58N 54°22' E 018°40'0 0.0
2018-Jan-10 09:28N 54°22' E 018°40'0 0.0
2018-Jan-10 08:56N 54°22' E 018°40'0 0.0
2018-Jan-10 08:26N 54°22' E 018°40'0 0.0
2018-Jan-10 07:58N 54°22' E 018°40'0 0.0
2018-Jan-10 07:22N 54°22' E 018°40'0 0.0
2018-Jan-10 06:58N 54°22' E 018°40'0 0.0
2018-Jan-10 06:28N 54°22' E 018°40'  

Dump ship's entire track history